createdAt,value
2018-09-15T00:00:05.411Z,0
2018-09-15T00:01:06.129Z,0
2018-09-15T00:02:06.800Z,0
2018-09-15T00:03:07.477Z,0
2018-09-15T00:04:08.149Z,0
2018-09-15T00:05:08.823Z,0
2018-09-15T00:06:09.531Z,0
2018-09-15T00:07:10.170Z,0
2018-09-15T00:08:10.843Z,0
2018-09-15T00:09:11.517Z,0
2018-09-15T00:10:12.195Z,0
2018-09-15T00:11:12.867Z,0
2018-09-15T00:12:13.542Z,0
2018-09-15T00:13:14.212Z,0
2018-09-15T00:14:14.889Z,0
2018-09-15T00:15:15.560Z,0
2018-09-15T00:16:16.234Z,0
2018-09-15T00:17:16.909Z,0
2018-09-15T00:18:17.583Z,0
2018-09-15T00:19:18.255Z,0
2018-09-15T00:20:18.931Z,0
2018-09-15T00:21:19.605Z,0
2018-09-15T00:22:20.277Z,0
2018-09-15T00:23:20.950Z,0
2018-09-15T00:24:21.624Z,0
2018-09-15T00:25:22.297Z,0
2018-09-15T00:26:22.970Z,0
2018-09-15T00:27:23.645Z,0
2018-09-15T00:28:24.316Z,0
2018-09-15T00:29:25.023Z,0
2018-09-15T00:30:25.710Z,0
2018-09-15T00:31:26.416Z,0
2018-09-15T00:32:27.104Z,0
2018-09-15T00:33:27.778Z,0
2018-09-15T00:34:28.451Z,0
2018-09-15T00:35:29.127Z,0
2018-09-15T00:36:29.804Z,0
2018-09-15T00:37:30.474Z,0
2018-09-15T00:38:31.148Z,0
2018-09-15T00:39:31.823Z,0
2018-09-15T00:40:32.496Z,0
2018-09-15T00:41:33.168Z,0
2018-09-15T00:42:33.841Z,0
2018-09-15T00:43:34.522Z,0
2018-09-15T00:44:35.230Z,0
2018-09-15T00:45:35.904Z,0
2018-09-15T00:46:36.575Z,0
2018-09-15T00:47:37.248Z,0
2018-09-15T00:48:37.920Z,0
2018-09-15T00:49:38.595Z,0
2018-09-15T00:50:39.266Z,0
2018-09-15T00:51:39.940Z,0
2018-09-15T00:52:40.612Z,0
2018-09-15T00:53:41.283Z,0
2018-09-15T00:54:41.957Z,0
2018-09-15T00:55:42.628Z,0
2018-09-15T00:56:43.303Z,0
2018-09-15T00:57:43.975Z,0
2018-09-15T00:58:44.649Z,0
2018-09-15T00:59:45.322Z,0
2018-09-15T01:00:45.995Z,0
2018-09-15T01:01:46.668Z,0
2018-09-15T01:02:47.342Z,0
2018-09-15T01:03:48.013Z,0
2018-09-15T01:04:48.686Z,0
2018-09-15T01:05:49.359Z,0
2018-09-15T01:06:50.032Z,0
2018-09-15T01:07:50.703Z,0
2018-09-15T01:08:51.378Z,0
2018-09-15T01:09:52.050Z,0
2018-09-15T01:10:52.722Z,0
2018-09-15T01:11:53.394Z,0
2018-09-15T01:12:54.068Z,0
2018-09-15T01:13:54.813Z,0
2018-09-15T01:14:55.414Z,0
2018-09-15T01:15:56.087Z,0
2018-09-15T01:16:56.759Z,0
2018-09-15T01:17:57.476Z,0
2018-09-15T01:18:58.151Z,0
2018-09-15T01:19:58.848Z,0
2018-09-15T01:20:59.495Z,0
2018-09-15T01:22:00.179Z,0
2018-09-15T01:23:00.842Z,0
2018-09-15T01:24:01.515Z,0
2018-09-15T01:25:02.187Z,0
2018-09-15T01:26:02.981Z,0
2018-09-15T01:27:03.566Z,0
2018-09-15T01:28:04.240Z,0
2018-09-15T01:29:04.917Z,0
2018-09-15T01:30:05.586Z,0
2018-09-15T01:31:06.260Z,0
2018-09-15T01:32:06.932Z,0
2018-09-15T01:33:07.604Z,0
2018-09-15T01:34:08.278Z,0
2018-09-15T01:35:08.959Z,0
2018-09-15T01:36:09.625Z,0
2018-09-15T01:37:10.298Z,0
2018-09-15T01:38:10.972Z,0
2018-09-15T01:39:11.643Z,0
2018-09-15T01:40:12.317Z,0
2018-09-15T01:41:12.989Z,0
2018-09-15T01:42:13.661Z,0
2018-09-15T01:43:14.333Z,0
2018-09-15T01:44:15.006Z,0
2018-09-15T01:45:15.680Z,0
2018-09-15T01:46:16.352Z,0
2018-09-15T01:47:17.024Z,0
2018-09-15T01:48:17.698Z,0
2018-09-15T01:49:18.374Z,0
2018-09-15T01:50:19.043Z,0
2018-09-15T01:51:19.715Z,0
2018-09-15T01:52:20.387Z,0
2018-09-15T01:53:21.075Z,0
2018-09-15T01:54:21.734Z,0
2018-09-15T01:55:22.408Z,0
2018-09-15T01:56:23.078Z,0
2018-09-15T01:57:23.808Z,0
2018-09-15T01:58:24.423Z,0
2018-09-15T01:59:25.096Z,0
2018-09-15T02:00:25.767Z,0
2018-09-15T02:01:26.441Z,0
2018-09-15T02:02:27.111Z,0
2018-09-15T02:03:27.785Z,0
2018-09-15T02:04:28.458Z,0
2018-09-15T02:05:29.135Z,0
2018-09-15T02:06:29.806Z,0
2018-09-15T02:07:30.479Z,0
2018-09-15T02:08:31.151Z,0
2018-09-15T02:09:31.824Z,0
2018-09-15T02:10:32.495Z,0
2018-09-15T02:11:33.168Z,0
2018-09-15T02:12:33.846Z,0
2018-09-15T02:13:34.513Z,0
2018-09-15T02:14:35.186Z,0
2018-09-15T02:15:35.858Z,0
2018-09-15T02:16:36.530Z,0
2018-09-15T02:17:37.204Z,0
2018-09-15T02:18:37.875Z,0
2018-09-15T02:19:38.547Z,0
2018-09-15T02:20:39.220Z,0
2018-09-15T02:21:39.936Z,0
2018-09-15T02:22:40.629Z,0
2018-09-15T02:23:41.282Z,0
2018-09-15T02:24:41.999Z,0
2018-09-15T02:25:42.716Z,0
2018-09-15T02:26:43.387Z,0
2018-09-15T02:27:44.062Z,0
2018-09-15T02:28:44.733Z,0
2018-09-15T02:29:45.406Z,0
2018-09-15T02:30:46.079Z,0
2018-09-15T02:31:46.757Z,0
2018-09-15T02:32:47.425Z,0
2018-09-15T02:33:48.096Z,0
2018-09-15T02:34:48.768Z,0
2018-09-15T02:35:49.441Z,0
2018-09-15T02:36:50.115Z,0
2018-09-15T02:37:50.792Z,0
2018-09-15T02:38:51.459Z,0
2018-09-15T02:39:52.131Z,0
2018-09-15T02:40:52.802Z,0
2018-09-15T02:41:53.476Z,0
2018-09-15T02:42:54.151Z,0
2018-09-15T02:43:54.820Z,0
2018-09-15T02:44:55.493Z,0
2018-09-15T02:45:56.169Z,0
2018-09-15T02:46:56.836Z,0
2018-09-15T02:47:57.510Z,0
2018-09-15T02:48:58.185Z,0
2018-09-15T02:49:58.897Z,0
2018-09-15T02:50:59.568Z,0
2018-09-15T02:52:00.241Z,0
2018-09-15T02:53:00.917Z,0
2018-09-15T02:54:01.585Z,0
2018-09-15T02:55:02.256Z,0
2018-09-15T02:56:02.927Z,0
2018-09-15T02:57:03.601Z,0
2018-09-15T02:58:04.272Z,0
2018-09-15T02:59:04.945Z,0
2018-09-15T03:00:05.615Z,0
2018-09-15T03:01:06.290Z,0
2018-09-15T03:02:06.964Z,0
2018-09-15T03:03:07.633Z,0
2018-09-15T03:04:08.305Z,0
2018-09-15T03:05:08.975Z,0
2018-09-15T03:06:09.692Z,0
2018-09-15T03:07:10.367Z,0
2018-09-15T03:08:11.082Z,0
2018-09-15T03:09:11.797Z,0
2018-09-15T03:10:12.468Z,0
2018-09-15T03:11:13.140Z,0
2018-09-15T03:12:13.813Z,0
2018-09-15T03:13:14.486Z,0
2018-09-15T03:14:15.158Z,0
2018-09-15T03:15:15.828Z,0
2018-09-15T03:16:16.501Z,0
2018-09-15T03:17:17.175Z,0
2018-09-15T03:18:17.844Z,0
2018-09-15T03:19:18.562Z,0
2018-09-15T03:20:19.234Z,0
2018-09-15T03:21:19.907Z,0
2018-09-15T03:22:20.576Z,0
2018-09-15T03:23:21.248Z,0
2018-09-15T03:24:21.966Z,0
2018-09-15T03:25:22.679Z,0
2018-09-15T03:26:23.351Z,0
2018-09-15T03:27:24.024Z,0
2018-09-15T03:28:24.738Z,0
2018-09-15T03:29:25.412Z,0
2018-09-15T03:30:26.080Z,0
2018-09-15T03:31:26.753Z,0
2018-09-15T03:32:27.424Z,0
2018-09-15T03:33:28.096Z,0
2018-09-15T03:34:28.768Z,0
2018-09-15T03:35:29.439Z,0
2018-09-15T03:36:30.111Z,0
2018-09-15T03:37:30.781Z,0
2018-09-15T03:38:31.453Z,0
2018-09-15T03:39:32.124Z,0
2018-09-15T03:40:32.796Z,0
2018-09-15T03:41:33.605Z,0
2018-09-15T03:42:34.223Z,0
2018-09-15T03:43:34.895Z,0
2018-09-15T03:44:35.566Z,0
2018-09-15T03:45:36.237Z,0
2018-09-15T03:46:36.911Z,0
2018-09-15T03:47:37.587Z,0
2018-09-15T03:48:38.254Z,0
2018-09-15T03:49:38.926Z,0
2018-09-15T03:50:39.597Z,0
2018-09-15T03:51:40.271Z,0
2018-09-15T03:52:40.945Z,0
2018-09-15T03:53:41.615Z,0
2018-09-15T03:54:42.285Z,0
2018-09-15T03:55:42.957Z,0
2018-09-15T03:56:43.632Z,0
2018-09-15T03:57:44.300Z,0
2018-09-15T03:58:44.976Z,0
2018-09-15T03:59:45.644Z,0
2018-09-15T04:00:46.315Z,0
2018-09-15T04:01:46.987Z,0
2018-09-15T04:02:47.660Z,0
2018-09-15T04:03:48.331Z,0
2018-09-15T04:04:49.003Z,0
2018-09-15T04:05:49.673Z,0
2018-09-15T04:06:50.390Z,0
2018-09-15T04:07:51.061Z,0
2018-09-15T04:08:51.733Z,0
2018-09-15T04:09:52.405Z,0
2018-09-15T04:10:53.076Z,0
2018-09-15T04:11:53.749Z,0
2018-09-15T04:12:54.420Z,0
2018-09-15T04:13:55.094Z,0
2018-09-15T04:14:55.764Z,0
2018-09-15T04:15:56.437Z,0
2018-09-15T04:16:57.110Z,0
2018-09-15T04:17:57.782Z,0
2018-09-15T04:18:58.500Z,0
2018-09-15T04:19:59.163Z,0
2018-09-15T04:20:59.836Z,0
2018-09-15T04:22:00.510Z,4
2018-09-15T04:23:01.182Z,4
2018-09-15T04:24:01.856Z,4
2018-09-15T04:25:02.526Z,4
2018-09-15T04:26:03.198Z,4
2018-09-15T04:27:03.872Z,4
2018-09-15T04:28:04.545Z,8
2018-09-15T04:29:05.297Z,8
2018-09-15T04:30:05.932Z,8
2018-09-15T04:31:06.610Z,8
2018-09-15T04:32:07.278Z,12
2018-09-15T04:33:07.996Z,12
2018-09-15T04:34:08.670Z,16
2018-09-15T04:35:09.347Z,16
2018-09-15T04:36:10.019Z,24
2018-09-15T04:37:10.693Z,28
2018-09-15T04:38:11.373Z,28
2018-09-15T04:39:12.087Z,36
2018-09-15T04:40:12.760Z,40
2018-09-15T04:41:13.432Z,48
2018-09-15T04:42:14.105Z,56
2018-09-15T04:43:14.779Z,60
2018-09-15T04:44:15.453Z,68
2018-09-15T04:45:16.127Z,76
2018-09-15T04:46:16.804Z,88
2018-09-15T04:47:17.474Z,96
2018-09-15T04:48:18.149Z,104
2018-09-15T04:49:18.822Z,120
2018-09-15T04:50:19.499Z,132
2018-09-15T04:51:20.173Z,148
2018-09-15T04:52:20.847Z,156
2018-09-15T04:53:21.523Z,176
2018-09-15T04:54:22.201Z,192
2018-09-15T04:55:22.874Z,212
2018-09-15T04:56:23.548Z,228
2018-09-15T04:57:24.224Z,248
2018-09-15T04:58:24.910Z,272
2018-09-15T04:59:25.573Z,292
2018-09-15T05:00:26.247Z,320
2018-09-15T05:01:26.925Z,344
2018-09-15T05:02:27.602Z,372
2018-09-15T05:03:28.321Z,400
2018-09-15T05:04:28.997Z,428
2018-09-15T05:05:29.673Z,460
2018-09-15T05:06:30.382Z,488
2018-09-15T05:07:31.026Z,520
2018-09-15T05:08:31.700Z,556
2018-09-15T05:09:32.376Z,592
2018-09-15T05:10:33.051Z,628
2018-09-15T05:11:33.727Z,668
2018-09-15T05:12:34.468Z,704
2018-09-15T05:13:35.079Z,748
2018-09-15T05:14:35.756Z,792
2018-09-15T05:15:36.431Z,832
2018-09-15T05:16:37.106Z,872
2018-09-15T05:17:37.784Z,916
2018-09-15T05:18:38.459Z,956
2018-09-15T05:19:39.136Z,1004
2018-09-15T05:20:39.814Z,1048
2018-09-15T05:21:40.538Z,1096
2018-09-15T05:22:41.212Z,1140
2018-09-15T05:23:41.890Z,1184
2018-09-15T05:24:42.569Z,1236
2018-09-15T05:25:43.245Z,1280
2018-09-15T05:26:43.923Z,1328
2018-09-15T05:27:44.600Z,1376
2018-09-15T05:28:45.279Z,1428
2018-09-15T05:29:45.999Z,1484
2018-09-15T05:30:46.676Z,1552
2018-09-15T05:31:47.353Z,1604
2018-09-15T05:32:48.075Z,1644
2018-09-15T05:33:48.796Z,1700
2018-09-15T05:34:49.472Z,1764
2018-09-15T05:35:50.149Z,1824
2018-09-15T05:36:50.827Z,1868
2018-09-15T05:37:51.547Z,1900
2018-09-15T05:38:52.224Z,1912
2018-09-15T05:39:52.927Z,1928
2018-09-15T05:40:53.578Z,1940
2018-09-15T05:41:54.256Z,1968
2018-09-15T05:42:54.976Z,2012
2018-09-15T05:43:55.654Z,2072
2018-09-15T05:44:56.331Z,2112
2018-09-15T05:45:57.009Z,2160
2018-09-15T05:46:57.685Z,2208
2018-09-15T05:47:58.362Z,2248
2018-09-15T05:48:59.040Z,2292
2018-09-15T05:49:59.717Z,2340
2018-09-15T05:51:00.415Z,2392
2018-09-15T05:52:01.125Z,2424
2018-09-15T05:53:01.798Z,2436
2018-09-15T05:54:02.471Z,2480
2018-09-15T05:55:03.147Z,2564
2018-09-15T05:56:03.837Z,2608
2018-09-15T05:57:04.538Z,2620
2018-09-15T05:58:05.215Z,2652
2018-09-15T05:59:05.892Z,2684
2018-09-15T06:00:06.571Z,2724
2018-09-15T06:01:07.293Z,2848
2018-09-15T06:02:07.969Z,3028
2018-09-15T06:03:08.647Z,3104
2018-09-15T06:04:09.325Z,3084
2018-09-15T06:05:10.002Z,3144
2018-09-15T06:06:10.680Z,3224
2018-09-15T06:07:11.357Z,3292
2018-09-15T06:08:12.034Z,3316
2018-09-15T06:09:12.711Z,3340
2018-09-15T06:10:13.389Z,3360
2018-09-15T06:11:14.065Z,3388
2018-09-15T06:12:14.744Z,3476
2018-09-15T06:13:15.420Z,3516
2018-09-15T06:14:16.097Z,3468
2018-09-15T06:15:16.777Z,3404
2018-09-15T06:16:17.457Z,3404
2018-09-15T06:17:18.132Z,3436
2018-09-15T06:18:18.852Z,3420
2018-09-15T06:19:19.530Z,3392
2018-09-15T06:20:20.210Z,3420
2018-09-15T06:21:20.885Z,3548
2018-09-15T06:22:21.562Z,3748
2018-09-15T06:23:22.239Z,3896
2018-09-15T06:24:22.917Z,3940
2018-09-15T06:25:23.595Z,3876
2018-09-15T06:26:24.271Z,3856
2018-09-15T06:27:24.948Z,3904
2018-09-15T06:28:25.626Z,3936
2018-09-15T06:29:26.302Z,3828
2018-09-15T06:30:26.981Z,3648
2018-09-15T06:31:27.658Z,3556
2018-09-15T06:32:28.336Z,3580
2018-09-15T06:33:29.014Z,3664
2018-09-15T06:34:29.693Z,3788
2018-09-15T06:35:30.412Z,3864
2018-09-15T06:36:31.090Z,3900
2018-09-15T06:37:31.771Z,3908
2018-09-15T06:38:32.489Z,3876
2018-09-15T06:39:33.168Z,3848
2018-09-15T06:40:33.848Z,3828
2018-09-15T06:41:34.523Z,3828
2018-09-15T06:42:35.200Z,3816
2018-09-15T06:43:35.878Z,3780
2018-09-15T06:44:36.555Z,3680
2018-09-15T06:45:37.263Z,3596
2018-09-15T06:46:37.911Z,3596
2018-09-15T06:47:38.587Z,3636
2018-09-15T06:48:39.268Z,3652
2018-09-15T06:49:39.944Z,3604
2018-09-15T06:50:40.666Z,3488
2018-09-15T06:51:41.343Z,3376
2018-09-15T06:52:42.022Z,3292
2018-09-15T06:53:42.745Z,3244
2018-09-15T06:54:43.376Z,3224
2018-09-15T06:55:44.054Z,3224
2018-09-15T06:56:44.731Z,3180
2018-09-15T06:57:45.420Z,3096
2018-09-15T06:58:46.088Z,2948
2018-09-15T06:59:46.765Z,2940
2018-09-15T07:00:47.454Z,3004
2018-09-15T07:01:48.122Z,3024
2018-09-15T07:02:48.802Z,3028
2018-09-15T07:03:49.482Z,3052
2018-09-15T07:04:50.156Z,3128
2018-09-15T07:05:50.835Z,3200
2018-09-15T07:06:51.526Z,3280
2018-09-15T07:07:52.195Z,3320
2018-09-15T07:08:52.913Z,3332
2018-09-15T07:09:53.591Z,3348
2018-09-15T07:10:54.269Z,3432
2018-09-15T07:11:54.953Z,3540
2018-09-15T07:12:55.696Z,3592
2018-09-15T07:13:56.354Z,3632
2018-09-15T07:14:57.075Z,3720
2018-09-15T07:15:57.758Z,3812
2018-09-15T07:16:58.477Z,3924
2018-09-15T07:17:59.158Z,3988
2018-09-15T07:18:59.839Z,4540
2018-09-15T07:20:00.574Z,4988
2018-09-15T07:21:01.233Z,5720
2018-09-15T07:22:01.912Z,5992
2018-09-15T07:23:02.594Z,5908
2018-09-15T07:24:03.272Z,5808
2018-09-15T07:25:03.950Z,5680
2018-09-15T07:26:04.642Z,5568
2018-09-15T07:27:05.311Z,5512
2018-09-15T07:28:05.990Z,5536
2018-09-15T07:29:06.672Z,5516
2018-09-15T07:30:07.355Z,5504
2018-09-15T07:31:08.033Z,5368
2018-09-15T07:32:08.713Z,5256
2018-09-15T07:33:09.394Z,5204
2018-09-15T07:34:10.097Z,5172
2018-09-15T07:35:10.756Z,5132
2018-09-15T07:36:11.480Z,5148
2018-09-15T07:37:12.191Z,5032
2018-09-15T07:38:12.888Z,4936
2018-09-15T07:39:13.569Z,4860
2018-09-15T07:40:14.251Z,5060
2018-09-15T07:41:14.963Z,4956
2018-09-15T07:42:15.663Z,4892
2018-09-15T07:43:16.341Z,5024
2018-09-15T07:44:17.024Z,5048
2018-09-15T07:45:17.706Z,5028
2018-09-15T07:46:18.387Z,5152
2018-09-15T07:47:19.071Z,5212
2018-09-15T07:48:19.757Z,5156
2018-09-15T07:49:20.441Z,4956
2018-09-15T07:50:21.121Z,5096
2018-09-15T07:51:21.805Z,5012
2018-09-15T07:52:22.489Z,4912
2018-09-15T07:53:23.173Z,4984
2018-09-15T07:54:23.863Z,5044
2018-09-15T07:55:24.544Z,5048
2018-09-15T07:56:25.224Z,4936
2018-09-15T07:57:25.935Z,5064
2018-09-15T07:58:26.594Z,5112
2018-09-15T07:59:27.278Z,5016
2018-09-15T08:00:27.962Z,4960
2018-09-15T08:01:28.645Z,4912
2018-09-15T08:02:29.332Z,4904
2018-09-15T08:03:30.016Z,4976
2018-09-15T08:04:30.699Z,4948
2018-09-15T08:05:31.386Z,4880
2018-09-15T08:06:32.419Z,4804
2018-09-15T08:07:33.045Z,4696
2018-09-15T08:08:33.729Z,4652
2018-09-15T08:09:34.415Z,4612
2018-09-15T08:10:35.101Z,4568
2018-09-15T08:11:35.786Z,4572
2018-09-15T08:12:36.485Z,4560
2018-09-15T08:13:37.204Z,4532
2018-09-15T08:14:37.935Z,4496
2018-09-15T08:15:38.619Z,4504
2018-09-15T08:16:39.304Z,4484
2018-09-15T08:17:39.991Z,4444
2018-09-15T08:18:40.676Z,4404
2018-09-15T08:19:41.364Z,4340
2018-09-15T08:20:42.074Z,4320
2018-09-15T08:21:42.735Z,4292
2018-09-15T08:22:43.422Z,4276
2018-09-15T08:23:44.107Z,4284
2018-09-15T08:24:44.794Z,4320
2018-09-15T08:25:45.481Z,4308
2018-09-15T08:26:46.168Z,4272
2018-09-15T08:27:46.853Z,4276
2018-09-15T08:28:47.584Z,4244
2018-09-15T08:29:48.264Z,4184
2018-09-15T08:30:48.982Z,4152
2018-09-15T08:31:49.715Z,4148
2018-09-15T08:32:50.406Z,4132
2018-09-15T08:33:51.133Z,4072
2018-09-15T08:34:51.821Z,4044
2018-09-15T08:35:52.509Z,4052
2018-09-15T08:36:53.238Z,4020
2018-09-15T08:37:53.928Z,3996
2018-09-15T08:38:54.613Z,3968
2018-09-15T08:39:55.299Z,3904
2018-09-15T08:40:55.985Z,3900
2018-09-15T08:41:56.696Z,3880
2018-09-15T08:42:57.402Z,3856
2018-09-15T08:43:58.091Z,3860
2018-09-15T08:44:58.778Z,3836
2018-09-15T08:45:59.463Z,3796
2018-09-15T08:47:00.150Z,3792
2018-09-15T08:48:00.837Z,3788
2018-09-15T08:49:01.524Z,3764
2018-09-15T08:50:02.212Z,3724
2018-09-15T08:51:02.900Z,3712
2018-09-15T08:52:03.656Z,3728
2018-09-15T08:53:04.359Z,3744
2018-09-15T08:54:05.069Z,3716
2018-09-15T08:55:05.777Z,3672
2018-09-15T08:56:06.500Z,3688
2018-09-15T08:57:07.163Z,3688
2018-09-15T08:58:07.881Z,3684
2018-09-15T08:59:08.566Z,3676
2018-09-15T09:00:09.254Z,3644
2018-09-15T09:01:09.941Z,3628
2018-09-15T09:02:10.629Z,3616
2018-09-15T09:03:11.316Z,3652
2018-09-15T09:04:12.006Z,3656
2018-09-15T09:05:12.734Z,3684
2018-09-15T09:06:13.421Z,3684
2018-09-15T09:07:14.106Z,3680
2018-09-15T09:08:14.793Z,3664
2018-09-15T09:09:15.484Z,3648
2018-09-15T09:10:16.232Z,3632
2018-09-15T09:11:16.898Z,3640
2018-09-15T09:12:17.581Z,3644
2018-09-15T09:13:18.268Z,3644
2018-09-15T09:14:18.955Z,3704
2018-09-15T09:15:19.640Z,3708
2018-09-15T09:16:20.328Z,3696
2018-09-15T09:17:21.090Z,3676
2018-09-15T09:18:21.789Z,3680
2018-09-15T09:19:22.475Z,3696
2018-09-15T09:20:23.161Z,3692
2018-09-15T09:21:23.850Z,3696
2018-09-15T09:22:24.533Z,3688
2018-09-15T09:23:25.219Z,3596
2018-09-15T09:24:25.906Z,3560
2018-09-15T09:25:26.592Z,3560
2018-09-15T09:26:27.346Z,3556
2018-09-15T09:27:27.965Z,3548
2018-09-15T09:28:28.651Z,3572
2018-09-15T09:29:29.335Z,3584
2018-09-15T09:30:30.024Z,3588
2018-09-15T09:31:30.714Z,3584
2018-09-15T09:32:31.397Z,3588
2018-09-15T09:33:32.084Z,3608
2018-09-15T09:34:32.812Z,3616
2018-09-15T09:35:33.544Z,3648
2018-09-15T09:36:34.224Z,3644
2018-09-15T09:37:34.909Z,3628
2018-09-15T09:38:35.595Z,3636
2018-09-15T09:39:36.313Z,3628
2018-09-15T09:40:36.966Z,3604
2018-09-15T09:41:37.653Z,3600
2018-09-15T09:42:38.339Z,3584
2018-09-15T09:43:39.036Z,3592
2018-09-15T09:44:39.755Z,3608
2018-09-15T09:45:40.483Z,3632
2018-09-15T09:46:41.171Z,3672
2018-09-15T09:47:41.858Z,3616
2018-09-15T09:48:42.540Z,3592
2018-09-15T09:49:43.228Z,3560
2018-09-15T09:50:43.912Z,3548
2018-09-15T09:51:44.597Z,3576
2018-09-15T09:52:45.316Z,3572
2018-09-15T09:53:46.013Z,3560
2018-09-15T09:54:46.700Z,3540
2018-09-15T09:55:47.385Z,3556
2018-09-15T09:56:48.068Z,3540
2018-09-15T09:57:48.758Z,3520
2018-09-15T09:58:49.442Z,3516
2018-09-15T09:59:50.126Z,3516
2018-09-15T10:00:50.815Z,3500
2018-09-15T10:01:51.500Z,3460
2018-09-15T10:02:52.185Z,3444
2018-09-15T10:03:52.869Z,3440
2018-09-15T10:04:53.554Z,3448
2018-09-15T10:05:54.240Z,3480
2018-09-15T10:06:54.974Z,3512
2018-09-15T10:07:55.609Z,3532
2018-09-15T10:08:56.295Z,3536
2018-09-15T10:09:57.026Z,3528
2018-09-15T10:10:57.710Z,3516
2018-09-15T10:11:58.396Z,3512
2018-09-15T10:12:59.081Z,3520
2018-09-15T10:13:59.767Z,3548
2018-09-15T10:15:00.451Z,3584
2018-09-15T10:16:01.211Z,3596
2018-09-15T10:17:01.820Z,3664
2018-09-15T10:18:02.503Z,3740
2018-09-15T10:19:03.187Z,3700
2018-09-15T10:20:03.873Z,3672
2018-09-15T10:21:04.560Z,3708
2018-09-15T10:22:05.286Z,3824
2018-09-15T10:23:05.970Z,3916
2018-09-15T10:24:06.654Z,3932
2018-09-15T10:25:07.337Z,3924
2018-09-15T10:26:08.068Z,3960
2018-09-15T10:27:08.747Z,4052
2018-09-15T10:28:09.471Z,4116
2018-09-15T10:29:10.154Z,3900
2018-09-15T10:30:10.837Z,2532
2018-09-15T10:31:11.520Z,2512
2018-09-15T10:32:12.305Z,3928
2018-09-15T10:33:12.931Z,2856
2018-09-15T10:34:13.616Z,3932
2018-09-15T10:35:14.342Z,4040
2018-09-15T10:36:15.023Z,4100
2018-09-15T10:37:15.709Z,4088
2018-09-15T10:38:16.391Z,4152
2018-09-15T10:39:17.075Z,4088
2018-09-15T10:40:17.809Z,3948
2018-09-15T10:41:18.480Z,3884
2018-09-15T10:42:19.162Z,3848
2018-09-15T10:43:19.846Z,3840
2018-09-15T10:44:20.529Z,3656
2018-09-15T10:45:21.212Z,3728
2018-09-15T10:46:21.896Z,3788
2018-09-15T10:47:22.612Z,3836
2018-09-15T10:48:23.307Z,3864
2018-09-15T10:49:23.991Z,3868
2018-09-15T10:50:24.677Z,4104
2018-09-15T10:51:25.394Z,4448
2018-09-15T10:52:26.166Z,4672
2018-09-15T10:53:26.771Z,4548
2018-09-15T10:54:27.499Z,4252
2018-09-15T10:55:28.183Z,4224
2018-09-15T10:56:28.865Z,4252
2018-09-15T10:57:29.549Z,4268
2018-09-15T10:58:30.234Z,4412
2018-09-15T10:59:30.919Z,4488
2018-09-15T11:00:31.622Z,4628
2018-09-15T11:01:32.284Z,4532
2018-09-15T11:02:32.968Z,4440
2018-09-15T11:03:33.673Z,4272
2018-09-15T11:04:34.378Z,4164
2018-09-15T11:05:35.061Z,2232
2018-09-15T11:06:35.743Z,3620
2018-09-15T11:07:36.428Z,4080
2018-09-15T11:08:37.155Z,4036
2018-09-15T11:09:37.837Z,3944
2018-09-15T11:10:38.521Z,3976
2018-09-15T11:11:39.205Z,3976
2018-09-15T11:12:39.887Z,3996
2018-09-15T11:13:40.669Z,4024
2018-09-15T11:14:41.303Z,4040
2018-09-15T11:15:42.076Z,4016
2018-09-15T11:16:42.760Z,3996
2018-09-15T11:17:43.442Z,3972
2018-09-15T11:18:44.130Z,4020
2018-09-15T11:19:44.810Z,4152
2018-09-15T11:20:45.492Z,4280
2018-09-15T11:21:46.220Z,4348
2018-09-15T11:22:46.969Z,4428
2018-09-15T11:23:47.588Z,4420
2018-09-15T11:24:48.271Z,4392
2018-09-15T11:25:48.953Z,4340
2018-09-15T11:26:49.678Z,4244
2018-09-15T11:27:50.366Z,4236
2018-09-15T11:28:51.059Z,4188
2018-09-15T11:29:51.732Z,4160
2018-09-15T11:30:52.415Z,4160
2018-09-15T11:31:53.097Z,4172
2018-09-15T11:32:53.779Z,4180
2018-09-15T11:33:54.483Z,4272
2018-09-15T11:34:55.148Z,4416
2018-09-15T11:35:55.876Z,4504
2018-09-15T11:36:56.599Z,4512
2018-09-15T11:37:57.638Z,4492
2018-09-15T11:38:58.257Z,4500
2018-09-15T11:39:58.948Z,4604
2018-09-15T11:40:59.666Z,4648
2018-09-15T11:42:00.307Z,4696
2018-09-15T11:43:00.991Z,4764
2018-09-15T11:44:01.676Z,4960
2018-09-15T11:45:02.360Z,5224
2018-09-15T11:46:03.085Z,5372
2018-09-15T11:47:03.768Z,5536
2018-09-15T11:48:04.734Z,5588
2018-09-15T11:49:05.182Z,5620
2018-09-15T11:50:05.896Z,5608
2018-09-15T11:51:06.589Z,5472
2018-09-15T11:52:07.274Z,5244
2018-09-15T11:53:07.957Z,5236
2018-09-15T11:54:08.641Z,5252
2018-09-15T11:55:09.325Z,5208
2018-09-15T11:56:10.009Z,5116
2018-09-15T11:57:10.693Z,5008
2018-09-15T11:58:11.376Z,4908
2018-09-15T11:59:12.062Z,4912
2018-09-15T12:00:12.748Z,4940
2018-09-15T12:01:13.431Z,5004
2018-09-15T12:02:14.114Z,5200
2018-09-15T12:03:14.800Z,5424
2018-09-15T12:04:15.485Z,5704
2018-09-15T12:05:16.167Z,5896
2018-09-15T12:06:16.850Z,5828
2018-09-15T12:07:17.534Z,5864
2018-09-15T12:08:18.219Z,5880
2018-09-15T12:09:18.943Z,5952
2018-09-15T12:10:19.626Z,6000
2018-09-15T12:11:20.311Z,5920
2018-09-15T12:12:20.993Z,5772
2018-09-15T12:13:21.675Z,5700
2018-09-15T12:14:22.362Z,3208
2018-09-15T12:15:23.047Z,3400
2018-09-15T12:16:23.729Z,3760
2018-09-15T12:17:24.437Z,4244
2018-09-15T12:18:25.142Z,7392
2018-09-15T12:19:25.824Z,7548
2018-09-15T12:20:26.508Z,7640
2018-09-15T12:21:27.227Z,7640
2018-09-15T12:22:27.876Z,7556
2018-09-15T12:23:28.559Z,7484
2018-09-15T12:24:29.246Z,8188
2018-09-15T12:25:29.928Z,7944
2018-09-15T12:26:30.611Z,7700
2018-09-15T12:27:31.294Z,7984
2018-09-15T12:28:31.980Z,7768
2018-09-15T12:29:32.664Z,7980
2018-09-15T12:30:33.346Z,8248
2018-09-15T12:31:34.032Z,8420
2018-09-15T12:32:34.715Z,8392
2018-09-15T12:33:35.459Z,8236
2018-09-15T12:34:36.083Z,8312
2018-09-15T12:35:36.813Z,8488
2018-09-15T12:36:37.503Z,8504
2018-09-15T12:37:38.227Z,8688
2018-09-15T12:38:38.922Z,8768
2018-09-15T12:39:39.640Z,8676
2018-09-15T12:40:40.324Z,8552
2018-09-15T12:41:41.011Z,8524
2018-09-15T12:42:41.694Z,8444
2018-09-15T12:43:42.379Z,8552
2018-09-15T12:44:43.064Z,8556
2018-09-15T12:45:43.757Z,8260
2018-09-15T12:46:44.480Z,8400
2018-09-15T12:47:45.207Z,6072
2018-09-15T12:48:45.894Z,6320
2018-09-15T12:49:46.576Z,6340
2018-09-15T12:50:47.261Z,7092
2018-09-15T12:51:47.980Z,7932
2018-09-15T12:52:48.632Z,7744
2018-09-15T12:53:49.316Z,7656
2018-09-15T12:54:50.004Z,7636
2018-09-15T12:55:50.689Z,6424
2018-09-15T12:56:51.374Z,6044
2018-09-15T12:57:52.144Z,6028
2018-09-15T12:58:52.782Z,6932
2018-09-15T12:59:53.466Z,6588
2018-09-15T13:00:54.173Z,6048
2018-09-15T13:01:54.884Z,5952
2018-09-15T13:02:55.567Z,6276
2018-09-15T13:03:56.252Z,4432
2018-09-15T13:04:56.937Z,4400
2018-09-15T13:05:57.622Z,4348
2018-09-15T13:06:58.308Z,4276
2018-09-15T13:07:59.034Z,4196
2018-09-15T13:08:59.721Z,4076
2018-09-15T13:10:00.412Z,3972
2018-09-15T13:11:01.099Z,3852
2018-09-15T13:12:01.852Z,3744
2018-09-15T13:13:02.549Z,3688
2018-09-15T13:14:03.234Z,3616
2018-09-15T13:15:03.918Z,3568
2018-09-15T13:16:04.602Z,3488
2018-09-15T13:17:05.287Z,3384
2018-09-15T13:18:05.973Z,3252
2018-09-15T13:19:06.655Z,3124
2018-09-15T13:20:07.337Z,3020
2018-09-15T13:21:08.065Z,3036
2018-09-15T13:22:08.760Z,3120
2018-09-15T13:23:09.437Z,3284
2018-09-15T13:24:10.122Z,3532
2018-09-15T13:25:10.807Z,3720
2018-09-15T13:26:11.490Z,3828
2018-09-15T13:27:12.174Z,3844
2018-09-15T13:28:12.865Z,3820
2018-09-15T13:29:13.588Z,3824
2018-09-15T13:30:14.309Z,3824
2018-09-15T13:31:14.960Z,3800
2018-09-15T13:32:15.672Z,3752
2018-09-15T13:33:16.369Z,3668
2018-09-15T13:34:17.051Z,3596
2018-09-15T13:35:17.736Z,3640
2018-09-15T13:36:18.425Z,3716
2018-09-15T13:37:19.103Z,3732
2018-09-15T13:38:19.922Z,3660
2018-09-15T13:39:20.509Z,3584
2018-09-15T13:40:21.192Z,3576
2018-09-15T13:41:21.878Z,3592
2018-09-15T13:42:22.561Z,3692
2018-09-15T13:43:23.247Z,3812
2018-09-15T13:44:23.973Z,3888
2018-09-15T13:45:24.660Z,3924
2018-09-15T13:46:25.386Z,3960
2018-09-15T13:47:26.111Z,3984
2018-09-15T13:48:26.845Z,3960
2018-09-15T13:49:27.530Z,3908
2018-09-15T13:50:28.212Z,3828
2018-09-15T13:51:28.896Z,3720
2018-09-15T13:52:29.579Z,3564
2018-09-15T13:53:30.263Z,3384
2018-09-15T13:54:30.949Z,3228
2018-09-15T13:55:31.632Z,3136
2018-09-15T13:56:32.314Z,3096